Time;durP1;ratioP1;P1;durP2;ratioP2;P2;SDS_P1;SDS_P2;PMS_P1;PMS_P2;Temp;Humidity;BMP_temperature;BMP_pressure;BME280_temperature;BME280_humidity;BME280_pressure;Samples;Min_cycle;Max_cycle;Signal;HPM_P1;HPM_P2
2022/04/16 00:01:19;;;;;;;4.30;2.40;;;23.60;56.30;;;;;;220265;1268;22551;-64
2022/04/16 00:06:23;;;;;;;5.30;2.50;;;23.60;56.30;;;;;;220578;1267;22685;-59
2022/04/16 00:11:26;;;;;;;4.80;2.00;;;23.50;56.20;;;;;;220508;1267;22561;-62
2022/04/16 00:16:31;;;;;;;3.30;2.00;;;23.50;56.30;;;;;;220765;1268;22628;-62
2022/04/16 00:21:35;;;;;;;5.00;2.50;;;23.50;56.10;;;;;;220637;1267;25483;-64
2022/04/16 00:26:41;;;;;;;5.80;2.30;;;23.60;56.00;;;;;;220764;1268;22562;-64
2022/04/16 00:31:46;;;;;;;4.40;2.80;;;23.70;55.80;;;;;;220808;1268;25351;-60
2022/04/16 00:36:50;;;;;;;4.20;2.20;;;23.70;55.90;;;;;;220478;1267;24221;-64
2022/04/16 00:41:57;;;;;;;4.30;2.30;;;23.80;55.80;;;;;;220717;1268;24429;-65
2022/04/16 00:47:01;;;;;;;3.60;2.00;;;23.80;55.80;;;;;;220530;1268;22564;-60
2022/04/16 00:52:06;;;;;;;7.10;2.90;;;23.70;55.70;;;;;;220640;1267;22696;-65
2022/04/16 00:57:10;;;;;;;3.30;2.10;;;23.70;55.90;;;;;;220725;1268;22759;-63
2022/04/16 01:02:13;;;;;;;4.30;2.40;;;23.60;55.80;;;;;;220677;1267;24367;-64
2022/04/16 01:07:25;;;;;;;4.30;2.20;;;23.60;55.90;;;;;;220582;1267;22534;-67
2022/04/16 01:12:28;;;;;;;3.90;2.00;;;23.50;55.90;;;;;;220651;1268;25288;-64
2022/04/16 01:17:32;;;;;;;4.60;2.10;;;23.50;56.30;;;;;;220613;1268;24176;-64
2022/04/16 01:22:36;;;;;;;4.60;1.90;;;23.30;56.00;;;;;;220687;1268;22739;-64
2022/04/16 01:27:43;;;;;;;4.20;2.20;;;23.30;56.50;;;;;;220363;1267;22657;-60
2022/04/16 01:32:48;;;;;;;5.10;2.40;;;23.20;56.50;;;;;;220615;1268;25391;-62
2022/04/16 01:37:52;;;;;;;4.20;2.10;;;23.20;56.40;;;;;;220411;1266;22619;-64
2022/04/16 01:42:56;;;;;;;4.00;2.20;;;23.10;56.30;;;;;;220766;1267;25611;-64
2022/04/16 01:48:00;;;;;;;4.20;2.30;;;23.10;56.40;;;;;;220583;1267;23922;-63
2022/04/16 01:53:05;;;;;;;3.80;1.90;;;23.00;56.60;;;;;;220647;1267;26581;-63
2022/04/16 01:58:09;;;;;;;4.40;2.30;;;23.00;55.90;;;;;;220548;1268;22527;-63
2022/04/16 02:03:14;;;;;;;3.70;1.80;;;22.90;56.60;;;;;;220707;1268;24408;-64
2022/04/16 02:08:20;;;;;;;4.90;1.80;;;22.90;56.60;;;;;;220817;1267;25232;-61
2022/04/16 02:13:24;;;;;;;4.40;1.80;;;22.90;56.70;;;;;;220472;1267;26531;-65
2022/04/16 02:18:28;;;;;;;4.90;2.00;;;22.80;56.00;;;;;;220810;1267;22527;-62
2022/04/16 02:23:32;;;;;;;3.40;2.20;;;22.80;56.60;;;;;;220505;1267;25363;-64
2022/04/16 02:28:36;;;;;;;2.70;1.80;;;22.80;56.50;;;;;;220323;1267;24402;-65
2022/04/16 02:33:40;;;;;;;3.10;1.90;;;22.70;56.80;;;;;;220544;1265;22666;-64
2022/04/16 02:38:44;;;;;;;4.30;2.10;;;22.70;56.80;;;;;;220897;1265;25241;-65
2022/04/16 02:43:50;;;;;;;3.90;1.80;;;22.70;56.60;;;;;;220458;1265;24515;-63
2022/04/16 02:48:54;;;;;;;6.90;1.80;;;22.60;56.80;;;;;;220739;1265;22550;-64
2022/04/16 02:53:58;;;;;;;3.50;1.50;;;22.60;56.80;;;;;;220872;1265;26446;-63
2022/04/16 02:59:02;;;;;;;4.10;1.60;;;22.60;56.30;;;;;;220418;1265;25357;-64
2022/04/16 03:04:06;;;;;;;3.30;1.80;;;22.50;57.30;;;;;;220642;1265;22544;-63
2022/04/16 03:09:09;;;;;;;2.60;1.40;;;22.50;56.70;;;;;;220522;1265;24079;-61
2022/04/16 03:19:40;;;;;;;4.00;2.00;;;22.80;56.60;;;;;;220550;1267;24367;-64
2022/04/16 03:24:46;;;;;;;3.30;1.40;;;23.10;55.60;;;;;;220515;1267;25293;-63
2022/04/16 03:29:50;;;;;;;2.80;1.70;;;23.30;54.80;;;;;;220432;1267;24364;-65
2022/04/16 03:34:54;;;;;;;3.00;1.80;;;23.50;54.40;;;;;;220406;1268;25351;-60
2022/04/16 03:39:57;;;;;;;3.20;1.50;;;23.60;54.00;;;;;;220703;1267;22615;-64
2022/04/16 03:45:03;;;;;;;3.80;1.50;;;23.70;53.70;;;;;;220419;1267;26368;-65
2022/04/16 03:50:07;;;;;;;2.40;1.20;;;23.70;53.90;;;;;;220525;1267;22698;-64
2022/04/16 04:00:37;;;;;;;2.70;1.40;;;23.90;53.40;;;;;;220324;1267;25373;-64
2022/04/16 04:05:41;;;;;;;4.00;2.00;;;24.00;53.10;;;;;;220546;1267;22547;-64
2022/04/16 04:10:46;;;;;;;2.60;1.30;;;23.90;52.80;;;;;;220197;1267;22625;-64
2022/04/16 04:15:50;;;;;;;2.60;1.50;;;23.90;52.90;;;;;;220715;1267;22698;-63
2022/04/16 04:20:55;;;;;;;3.00;1.60;;;23.90;52.90;;;;;;220548;1265;256725;-65
2022/04/16 04:25:59;;;;;;;2.20;1.40;;;23.80;53.00;;;;;;221004;1267;24286;-62
2022/04/16 04:31:03;;;;;;;4.10;1.40;;;23.80;53.10;;;;;;220330;1267;22786;-64
2022/04/16 04:36:07;;;;;;;3.40;1.70;;;23.70;53.10;;;;;;220581;1267;24214;-64
2022/04/16 04:41:10;;;;;;;2.20;1.30;;;23.70;53.20;;;;;;220574;1267;22596;-63
2022/04/16 04:46:14;;;;;;;3.60;1.40;;;23.60;53.20;;;;;;220622;1268;22615;-65
2022/04/16 04:51:18;;;;;;;2.60;1.40;;;23.60;53.20;;;;;;220319;1267;24300;-64
2022/04/16 04:56:22;;;;;;;2.40;1.40;;;23.60;53.00;;;;;;220245;1267;25173;-64
2022/04/16 05:01:25;;;;;;;2.60;1.50;;;23.50;53.40;;;;;;220573;1267;22692;-64
2022/04/16 05:06:29;;;;;;;2.50;1.50;;;23.50;53.10;;;;;;220508;1266;24300;-64
2022/04/16 05:11:33;;;;;;;3.50;1.50;;;23.60;52.90;;;;;;221005;1267;24412;-62
2022/04/16 05:16:37;;;;;;;5.00;1.80;;;23.70;52.90;;;;;;220600;1267;22615;-63
2022/04/16 05:21:42;;;;;;;3.00;1.60;;;23.70;52.40;;;;;;220532;1265;22688;-65
2022/04/16 05:26:45;;;;;;;2.20;1.40;;;23.80;52.10;;;;;;220656;1267;24374;-63
2022/04/16 05:31:49;;;;;;;3.50;1.40;;;23.90;52.70;;;;;;220602;1268;24215;-64
2022/04/16 05:36:53;;;;;;;3.60;1.40;;;24.00;51.80;;;;;;220658;1267;25604;-64
2022/04/16 05:41:56;;;;;;;2.90;1.50;;;23.90;51.90;;;;;;220507;1267;23433;-65
2022/04/16 05:47:00;;;;;;;4.00;1.50;;;23.90;52.00;;;;;;220530;1267;24322;-57
2022/04/16 05:52:05;;;;;;;2.30;1.20;;;23.80;52.00;;;;;;220560;1268;22560;-65
2022/04/16 05:57:09;;;;;;;2.30;1.30;;;23.70;52.00;;;;;;220908;1267;22560;-63
2022/04/16 06:02:13;;;;;;;2.20;1.30;;;23.70;52.20;;;;;;220452;1267;25566;-64
2022/04/16 06:07:17;;;;;;;2.10;1.30;;;23.60;52.30;;;;;;220620;1267;24409;-64
2022/04/16 06:12:23;;;;;;;3.10;1.40;;;23.50;52.60;;;;;;220613;1267;25461;-63
2022/04/16 06:17:30;;;;;;;2.60;1.30;;;23.50;52.70;;;;;;220369;1267;26337;-64
2022/04/16 06:22:38;;;;;;;2.30;1.40;;;23.40;52.80;;;;;;220662;1267;22750;-66
2022/04/16 06:27:44;;;;;;;3.20;1.40;;;23.30;52.90;;;;;;220507;1267;24085;-63
2022/04/16 06:32:47;;;;;;;2.50;1.40;;;23.30;53.30;;;;;;220547;1267;24315;-64
2022/04/16 06:37:51;;;;;;;3.40;1.50;;;23.20;53.00;;;;;;220630;1267;25324;-65
2022/04/16 06:42:54;;;;;;;2.50;1.50;;;23.20;52.60;;;;;;220729;1267;22659;-66
2022/04/16 06:47:58;;;;;;;4.00;1.30;;;23.10;53.30;;;;;;220489;1267;25378;-63
2022/04/16 06:53:02;;;;;;;2.80;1.30;;;23.00;53.80;;;;;;220672;1267;24248;-64
2022/04/16 06:58:06;;;;;;;3.90;1.50;;;23.00;53.30;;;;;;220545;1267;22525;-64
2022/04/16 07:03:09;;;;;;;4.60;1.70;;;22.90;53.30;;;;;;220390;1267;25356;-56
2022/04/16 07:08:13;;;;;;;10.30;2.10;;;22.90;53.60;;;;;;220542;1267;23191;-65
2022/04/16 07:13:19;;;;;;;2.90;1.50;;;22.90;53.80;;;;;;220426;1267;22540;-61
2022/04/16 07:18:25;;;;;;;9.20;1.90;;;22.80;54.00;;;;;;220765;1267;22575;-60
2022/04/16 07:23:29;;;;;;;7.80;1.60;;;22.80;54.50;;;;;;220695;1267;22755;-63
2022/04/16 07:28:33;;;;;;;9.00;2.60;;;22.80;56.40;;;;;;220477;1267;24146;-62
2022/04/16 07:33:37;;;;;;;13.60;2.20;;;22.90;57.90;;;;;;220670;1267;23925;-59
2022/04/16 07:38:44;;;;;;;14.80;2.20;;;22.80;58.50;;;;;;220449;1266;24217;-60
2022/04/16 07:43:48;;;;;;;12.10;2.70;;;22.80;58.40;;;;;;221248;1267;24316;-64
2022/04/16 07:49:02;;;;;;;20.60;2.30;;;22.80;58.30;;;;;;220367;1267;22563;-62
2022/04/16 07:54:06;;;;;;;11.80;2.80;;;22.80;58.10;;;;;;220612;1267;22554;-63
2022/04/16 07:59:11;;;;;;;9.30;2.00;;;22.60;57.70;;;;;;220673;1267;22544;-60
2022/04/16 08:04:16;;;;;;;7.20;2.30;;;22.60;57.50;;;;;;220811;1267;22722;-61
2022/04/16 08:09:21;;;;;;;9.70;3.00;;;22.60;56.90;;;;;;220614;1267;25553;-61
2022/04/16 08:14:26;;;;;;;10.20;2.40;;;22.60;56.40;;;;;;220505;1267;23507;-61
2022/04/16 08:19:30;;;;;;;8.00;2.00;;;22.50;56.60;;;;;;220847;1267;22564;-60
2022/04/16 08:29:41;;;;;;;8.30;2.00;;;22.60;55.70;;;;;;220780;1267;24211;-65
2022/04/16 08:34:44;;;;;;;12.30;2.70;;;22.50;55.40;;;;;;220755;1268;25742;-66
2022/04/16 08:39:51;;;;;;;9.80;2.30;;;22.60;55.90;;;;;;220857;1268;22538;-68
2022/04/16 08:45:03;;;;;;;7.50;2.30;;;22.60;54.90;;;;;;220461;1267;24357;-65
2022/04/16 08:50:12;;;;;;;14.80;2.80;;;22.50;54.60;;;;;;220783;1267;23742;-62
2022/04/16 08:55:20;;;;;;;12.80;2.90;;;22.60;54.30;;;;;;220655;1267;24331;-60
2022/04/16 09:00:26;;;;;;;12.70;2.60;;;22.60;54.30;;;;;;220623;1267;24277;-67
2022/04/16 09:05:30;;;;;;;11.10;2.80;;;22.60;53.90;;;;;;220964;1267;23902;-65
2022/04/16 09:10:41;;;;;;;6.80;2.50;;;22.40;53.30;;;;;;220572;1268;26699;-64
2022/04/16 09:15:53;;;;;;;11.90;2.50;;;22.30;51.80;;;;;;220405;1268;22707;-64
2022/04/16 09:21:13;;;;;;;3.90;1.90;;;22.40;51.40;;;;;;220310;1267;22536;-66
2022/04/16 09:26:36;;;;;;;;;;;22.40;50.90;;;;;;220835;1267;25377;-72
2022/04/16 09:31:43;;;;;;;8.90;2.00;;;22.40;50.70;;;;;;220972;1267;22650;-65
2022/04/16 09:36:48;;;;;;;9.30;2.40;;;22.40;50.50;;;;;;220900;1267;24363;-66
2022/04/16 09:41:59;;;;;;;5.90;2.00;;;22.40;50.50;;;;;;220777;1267;24496;-65
2022/04/16 09:47:07;;;;;;;5.00;2.00;;;22.40;50.20;;;;;;220674;1267;22613;-66
2022/04/16 09:52:15;;;;;;;4.90;2.00;;;22.40;50.00;;;;;;220528;1267;25483;-67
2022/04/16 09:57:21;;;;;;;7.50;2.30;;;22.50;50.10;;;;;;220788;1267;24436;-65
2022/04/16 10:02:27;;;;;;;4.30;2.30;;;22.80;49.30;;;;;;220816;1267;25638;-66
2022/04/16 10:07:32;;;;;;;4.10;2.00;;;23.10;48.70;;;;;;220824;1267;23857;-68
2022/04/16 10:18:02;;;;;;;3.20;1.90;;;23.50;47.30;;;;;;220857;1267;22536;-66
2022/04/16 10:23:07;;;;;;;4.60;1.80;;;23.60;47.30;;;;;;220874;1267;24084;-68
2022/04/16 10:28:16;;;;;;;4.00;1.80;;;23.70;47.10;;;;;;220892;1267;26593;-67
2022/04/16 10:33:28;;;;;;;4.60;2.00;;;23.80;46.90;;;;;;220778;1267;24391;-70
2022/04/16 10:38:39;;;;;;;3.70;1.60;;;23.90;46.50;;;;;;220584;1267;22532;-69
2022/04/16 10:44:01;;;;;;;2.90;1.70;;;23.90;46.30;;;;;;220551;1267;24222;-68
2022/04/16 10:49:14;;;;;;;2.80;1.60;;;23.90;46.20;;;;;;221090;1267;24233;-67
2022/04/16 10:54:28;;;;;;;4.00;1.50;;;23.90;46.20;;;;;;220956;1267;22600;-69
2022/04/16 10:59:44;;;;;;;3.00;1.80;;;23.80;46.20;;;;;;220634;1267;24305;-67
2022/04/16 11:05:10;;;;;;;4.20;1.70;;;23.80;46.10;;;;;;220696;1267;22544;-65
2022/04/16 11:10:28;;;;;;;4.80;1.80;;;23.80;46.10;;;;;;220672;1267;22531;-68
2022/04/16 11:15:33;;;;;;;;;;;23.70;46.00;;;;;;220501;1267;22515;-67
2022/04/16 11:20:39;;;;;;;3.50;1.60;;;23.70;45.80;;;;;;220736;1267;25435;-69
2022/04/16 11:36:50;;;;;;;2.60;1.40;;;23.60;45.60;;;;;;220648;1267;22931;-68
2022/04/16 11:42:00;;;;;;;3.80;1.50;;;23.60;45.70;;;;;;220591;1268;24268;-69
2022/04/16 11:47:12;;;;;;;4.10;1.70;;;23.60;45.80;;;;;;220537;1267;25333;-67
2022/04/16 11:52:28;;;;;;;3.80;1.80;;;23.60;45.80;;;;;;220660;1268;22550;-68
2022/04/16 11:57:34;;;;;;;2.20;1.40;;;23.40;45.30;;;;;;220670;1269;22754;-66
2022/04/16 12:02:39;;;;;;;2.20;1.50;;;23.50;45.30;;;;;;220501;1267;22567;-68
2022/04/16 12:07:48;;;;;;;3.00;1.50;;;23.50;45.20;;;;;;220793;1268;23162;-69
2022/04/16 12:12:54;;;;;;;2.60;1.40;;;23.40;45.10;;;;;;220800;1267;23042;-65
2022/04/16 12:18:23;;;;;;;3.80;1.50;;;23.40;45.00;;;;;;220859;1267;22515;-64
2022/04/16 12:23:30;;;;;;;2.20;1.20;;;23.30;45.00;;;;;;220566;1268;24367;-69
2022/04/16 12:28:43;;;;;;;3.10;1.60;;;23.30;44.90;;;;;;220980;1267;24217;-73
2022/04/16 12:33:47;;;;;;;2.60;1.30;;;23.30;44.80;;;;;;220884;1267;22587;-70
2022/04/16 12:38:50;;;;;;;3.50;1.40;;;23.20;44.80;;;;;;220570;1267;25530;-70
2022/04/16 12:43:55;;;;;;;2.80;1.50;;;23.20;44.80;;;;;;220549;1267;25503;-70
2022/04/16 12:48:59;;;;;;;3.40;1.60;;;23.20;45.00;;;;;;220920;1267;24074;-68
2022/04/16 12:54:02;;;;;;;3.20;1.70;;;23.20;45.00;;;;;;220923;1270;22632;-72
2022/04/16 12:59:07;;;;;;;2.80;1.50;;;23.10;44.50;;;;;;220498;1269;22534;-70
2022/04/16 13:04:12;;;;;;;3.10;1.70;;;23.10;44.50;;;;;;220916;1268;22700;-68
2022/04/16 13:09:16;;;;;;;4.60;1.80;;;23.10;44.50;;;;;;220845;1268;22545;-70
2022/04/16 13:14:19;;;;;;;2.80;1.60;;;23.00;44.30;;;;;;221002;1268;25578;-69
2022/04/16 13:19:24;;;;;;;2.80;1.60;;;23.00;44.30;;;;;;220819;1268;22695;-73
2022/04/16 13:24:28;;;;;;;4.00;1.90;;;23.00;44.20;;;;;;220603;1267;22617;-72
2022/04/16 13:29:33;;;;;;;3.80;1.50;;;23.00;44.10;;;;;;220366;1268;22617;-70
2022/04/16 13:34:40;;;;;;;2.70;1.60;;;23.00;44.20;;;;;;220585;1267;24248;-70
2022/04/16 13:45:11;;;;;;;3.10;1.80;;;22.90;43.90;;;;;;220439;1267;22617;-68
2022/04/16 13:50:15;;;;;;;2.60;1.50;;;22.90;44.00;;;;;;221009;1268;24333;-69
2022/04/16 13:55:19;;;;;;;2.10;1.20;;;22.90;43.80;;;;;;221093;1268;22529;-69
2022/04/16 14:00:23;;;;;;;2.90;1.50;;;22.90;43.90;;;;;;220824;1267;25230;-70
2022/04/16 14:05:45;;;;;;;2.50;1.50;;;22.80;43.60;;;;;;220557;1267;22560;-67
2022/04/16 14:10:49;;;;;;;3.30;1.40;;;22.80;43.90;;;;;;220509;1267;22853;-69
2022/04/16 14:15:53;;;;;;;2.80;1.40;;;22.80;43.70;;;;;;220619;1267;22621;-72
2022/04/16 14:21:00;;;;;;;3.10;1.80;;;22.80;43.60;;;;;;220740;1268;22556;-71
2022/04/16 14:26:05;;;;;;;2.70;1.40;;;22.80;43.50;;;;;;220832;1268;24222;-68
2022/04/16 14:31:10;;;;;;;3.20;1.60;;;22.80;43.70;;;;;;220723;1268;24317;-68
2022/04/16 14:36:15;;;;;;;2.30;1.40;;;22.70;43.30;;;;;;220855;1268;24215;-70
2022/04/16 14:41:18;;;;;;;2.70;1.40;;;22.70;43.20;;;;;;220896;1267;22532;-69
2022/04/16 14:46:22;;;;;;;2.50;1.20;;;22.70;43.20;;;;;;220868;1268;23914;-69
2022/04/16 14:51:29;;;;;;;2.10;1.20;;;22.70;43.40;;;;;;220861;1267;24328;-68
2022/04/16 14:56:33;;;;;;;3.20;1.40;;;22.70;43.10;;;;;;220681;1267;22605;-72
2022/04/16 15:01:36;;;;;;;2.10;1.20;;;22.70;43.00;;;;;;220551;1267;24212;-68
2022/04/16 15:06:40;;;;;;;2.80;1.70;;;22.60;43.00;;;;;;221012;1268;22548;-67
2022/04/16 15:11:44;;;;;;;2.60;1.60;;;22.60;42.90;;;;;;220775;1267;24514;-69
2022/04/16 15:16:47;;;;;;;2.70;1.40;;;22.60;42.90;;;;;;220707;1267;24215;-68
2022/04/16 15:21:57;;;;;;;3.30;1.50;;;22.60;42.80;;;;;;220518;1266;25414;-69
2022/04/16 15:27:01;;;;;;;2.10;1.30;;;22.60;43.10;;;;;;220905;1270;22541;-69
2022/04/16 15:32:06;;;;;;;3.80;1.60;;;22.90;42.70;;;;;;221050;1268;25229;-68
2022/04/16 15:37:13;;;;;;;2.60;1.20;;;23.20;42.20;;;;;;220941;1270;22761;-69
2022/04/16 15:42:19;;;;;;;2.30;1.30;;;23.30;42.00;;;;;;220536;1268;22547;-67
2022/04/16 15:47:24;;;;;;;2.90;1.60;;;23.50;41.80;;;;;;220755;1267;24314;-71
2022/04/16 15:52:33;;;;;;;2.40;1.40;;;23.50;41.50;;;;;;220883;1268;25373;-68
2022/04/16 15:57:41;;;;;;;2.10;1.30;;;23.60;41.40;;;;;;220822;1268;24284;-66
2022/04/16 16:02:54;;;;;;;2.40;1.30;;;23.60;41.30;;;;;;220847;1268;24315;-67
2022/04/16 16:08:00;;;;;;;2.20;1.40;;;23.70;41.20;;;;;;220964;1268;25502;-67
2022/04/16 16:13:06;;;;;;;2.90;1.40;;;23.60;41.40;;;;;;220996;1267;22681;-67
2022/04/16 16:18:15;;;;;;;2.70;1.20;;;23.60;41.20;;;;;;220873;1270;22626;-68
2022/04/16 16:23:21;;;;;;;2.50;1.20;;;23.60;41.20;;;;;;220654;1270;275045;-66
2022/04/16 16:28:25;;;;;;;2.50;1.40;;;23.60;41.50;;;;;;220823;1268;22547;-68
2022/04/16 16:33:30;;;;;;;2.80;1.30;;;23.50;41.20;;;;;;220810;1268;25535;-68
2022/04/16 16:38:35;;;;;;;3.10;1.50;;;23.50;41.30;;;;;;220800;1268;23308;-67
2022/04/16 16:43:43;;;;;;;2.90;1.50;;;23.50;41.20;;;;;;220951;1269;22564;-70
2022/04/16 16:49:00;;;;;;;2.20;1.20;;;23.40;41.30;;;;;;219387;1274;26611;-69
2022/04/16 16:54:09;;;;;;;2.00;1.20;;;23.40;41.10;;;;;;219602;1275;23194;-69
2022/04/16 16:59:26;;;;;;;2.40;1.20;;;23.40;41.30;;;;;;219485;1274;24317;-67
2022/04/16 17:09:57;;;;;;;1.90;1.20;;;23.40;41.00;;;;;;220943;1270;25323;-66
2022/04/16 17:20:25;;;;;;;3.20;1.30;;;23.30;40.90;;;;;;220520;1268;22611;-67
2022/04/16 17:25:34;;;;;;;3.00;1.60;;;23.40;40.90;;;;;;220753;1268;23116;-66
2022/04/16 17:30:39;;;;;;;3.90;1.50;;;23.50;40.80;;;;;;220455;1268;22655;-69
2022/04/16 17:35:45;;;;;;;2.20;1.40;;;23.50;40.70;;;;;;220873;1268;24204;-65
2022/04/16 17:40:50;;;;;;;2.70;1.50;;;23.60;41.00;;;;;;220847;1268;22545;-67
2022/04/16 17:45:55;;;;;;;2.90;1.20;;;23.70;40.50;;;;;;220800;1267;24723;-67
2022/04/16 17:51:00;;;;;;;2.40;1.20;;;23.80;40.50;;;;;;220640;1268;22601;-66
2022/04/16 17:56:13;;;;;;;2.10;1.30;;;23.80;40.30;;;;;;220961;1270;24319;-67
2022/04/16 18:01:21;;;;;;;2.20;1.30;;;23.80;40.20;;;;;;221003;1268;22536;-66
2022/04/16 18:06:26;;;;;;;3.00;1.30;;;23.80;40.30;;;;;;220942;1268;23088;-68
2022/04/16 18:11:36;;;;;;;2.40;1.50;;;23.70;40.30;;;;;;220550;1268;22529;-68
2022/04/16 18:16:46;;;;;;;2.10;1.30;;;23.70;40.40;;;;;;220829;1268;22532;-66
2022/04/16 18:21:50;;;;;;;3.10;1.80;;;23.60;40.40;;;;;;220909;1268;24312;-66
2022/04/16 18:26:54;;;;;;;2.30;1.30;;;23.60;40.30;;;;;;220321;1268;24488;-65
2022/04/16 18:32:03;;;;;;;2.90;1.60;;;23.60;40.40;;;;;;220710;1268;25262;-66
2022/04/16 18:37:10;;;;;;;;;;;23.60;40.40;;;;;;220539;1268;24287;-65
2022/04/16 18:42:30;;;;;;;2.60;1.60;;;23.50;40.40;;;;;;220993;1268;22802;-70
2022/04/16 18:47:47;;;;;;;2.70;1.30;;;23.50;40.50;;;;;;220791;1268;25509;-65
2022/04/16 18:52:51;;;;;;;3.30;1.90;;;23.50;40.40;;;;;;220966;1268;22574;-67
2022/04/16 18:57:59;;;;;;;3.20;1.60;;;23.50;40.50;;;;;;220668;1268;25306;-65
2022/04/16 19:08:25;;;;;;;3.00;1.90;;;23.40;40.40;;;;;;220916;1267;24299;-62
2022/04/16 19:13:31;;;;;;;2.70;1.40;;;23.40;40.40;;;;;;220807;1267;24291;-66
2022/04/16 19:18:43;;;;;;;3.00;1.70;;;23.40;40.40;;;;;;220738;1267;25239;-66
2022/04/16 19:23:49;;;;;;;3.00;1.60;;;23.40;40.30;;;;;;220407;1267;25338;-67
2022/04/16 19:28:57;;;;;;;2.50;1.50;;;23.30;40.30;;;;;;220513;1267;22844;-68
2022/04/16 19:34:18;;;;;;;3.00;1.60;;;23.40;40.30;;;;;;220668;1267;24297;-65
2022/04/16 19:39:23;;;;;;;2.40;1.40;;;23.30;40.20;;;;;;220659;1267;25349;-65
2022/04/16 19:44:27;;;;;;;2.90;1.80;;;23.30;40.20;;;;;;220779;1267;22570;-65
2022/04/16 19:49:35;;;;;;;3.50;1.80;;;23.30;40.20;;;;;;220625;1268;23064;-70
2022/04/16 19:54:43;;;;;;;2.60;1.40;;;23.40;40.20;;;;;;220590;1267;24044;-65
2022/04/16 20:00:13;;;;;;;3.30;1.60;;;23.30;40.50;;;;;;220522;1267;22614;-63
2022/04/16 20:05:29;;;;;;;3.40;1.80;;;23.40;40.00;;;;;;220770;1268;22547;-65
2022/04/16 20:10:43;;;;;;;3.20;1.90;;;23.50;39.90;;;;;;220867;1267;25608;-67
2022/04/16 20:15:54;;;;;;;3.90;2.20;;;23.60;39.80;;;;;;220503;1267;25245;-65
2022/04/16 20:20:59;;;;;;;3.60;1.90;;;23.60;39.60;;;;;;220820;1267;23038;-64
2022/04/16 20:26:04;;;;;;;2.80;1.70;;;23.70;39.50;;;;;;220912;1267;23946;-66
2022/04/16 20:31:07;;;;;;;3.60;2.10;;;23.80;39.80;;;;;;221079;1267;24885;-67
2022/04/16 20:36:11;;;;;;;3.60;2.30;;;23.80;39.30;;;;;;220731;1268;25361;-66
2022/04/16 20:46:48;;;;;;;2.90;1.90;;;23.70;39.30;;;;;;220658;1267;24393;-66
2022/04/16 20:57:25;;;;;;;5.00;2.50;;;23.70;39.30;;;;;;220449;1267;22690;-69
2022/04/16 21:02:31;;;;;;;5.10;2.90;;;23.60;40.10;;;;;;220899;1267;22714;-64
2022/04/16 21:07:35;;;;;;;4.60;2.60;;;23.50;39.40;;;;;;220854;1267;22774;-66
2022/04/16 21:12:49;;;;;;;5.80;2.90;;;23.40;39.50;;;;;;220821;1267;22593;-65
2022/04/16 21:17:53;;;;;;;6.50;3.60;;;23.30;39.60;;;;;;220645;1267;24036;-65
2022/04/16 21:23:01;;;;;;;5.60;3.30;;;23.30;39.20;;;;;;220720;1267;22699;-64
2022/04/16 21:28:10;;;;;;;8.20;4.40;;;23.20;39.80;;;;;;220749;1268;24285;-65
2022/04/16 21:33:14;;;;;;;9.10;4.60;;;23.10;39.80;;;;;;221118;1268;24350;-67
2022/04/16 21:38:18;;;;;;;9.10;4.90;;;23.00;39.90;;;;;;220927;1267;24266;-67
2022/04/16 21:43:21;;;;;;;9.50;4.50;;;23.00;40.00;;;;;;220902;1268;23083;-64
2022/04/16 21:48:25;;;;;;;8.80;5.00;;;22.90;40.10;;;;;;220786;1267;22540;-66
2022/04/16 21:53:30;;;;;;;9.50;4.70;;;22.90;40.20;;;;;;220571;1267;22544;-70
2022/04/16 21:58:38;;;;;;;8.60;5.00;;;22.80;40.20;;;;;;220853;1268;25185;-66
2022/04/16 22:03:44;;;;;;;10.10;5.30;;;22.80;40.60;;;;;;220731;1268;25446;-67
2022/04/16 22:08:47;;;;;;;11.00;5.10;;;22.70;40.50;;;;;;220833;1267;22547;-66
2022/04/16 22:13:52;;;;;;;11.00;5.20;;;22.70;40.30;;;;;;220439;1267;22532;-65
2022/04/16 22:18:56;;;;;;;10.70;5.50;;;22.60;40.30;;;;;;220536;1268;22601;-66
2022/04/16 22:24:00;;;;;;;12.90;6.20;;;22.60;40.30;;;;;;220404;1267;22555;-62
2022/04/16 22:29:05;;;;;;;12.00;6.00;;;22.50;40.30;;;;;;220346;1267;22646;-65
2022/04/16 22:34:08;;;;;;;12.90;6.60;;;22.50;40.40;;;;;;220437;1267;22550;-69
2022/04/16 22:44:36;;;;;;;14.40;7.60;;;22.60;40.10;;;;;;220644;1268;25307;-63
2022/04/16 22:49:39;;;;;;;16.00;8.50;;;22.90;40.00;;;;;;220887;1268;22609;-69
2022/04/16 22:54:43;;;;;;;16.00;7.90;;;23.10;39.30;;;;;;220702;1268;24862;-65
2022/04/16 22:59:47;;;;;;;13.70;7.20;;;23.20;39.40;;;;;;220833;1267;23952;-65
2022/04/16 23:04:50;;;;;;;14.80;7.70;;;23.30;39.20;;;;;;220859;1268;22754;-65
2022/04/16 23:09:57;;;;;;;13.00;7.90;;;23.40;38.70;;;;;;220851;1267;24408;-65
2022/04/16 23:20:23;;;;;;;12.50;7.00;;;23.40;38.60;;;;;;220914;1267;22604;-65
2022/04/16 23:25:27;;;;;;;13.60;7.60;;;23.50;38.70;;;;;;220995;1268;24371;-67
2022/04/16 23:30:31;;;;;;;12.70;7.30;;;23.50;38.70;;;;;;220917;1267;25510;-65
2022/04/16 23:35:37;;;;;;;13.40;7.30;;;23.50;38.70;;;;;;220851;1267;25239;-66
2022/04/16 23:40:41;;;;;;;13.10;7.30;;;23.40;38.70;;;;;;220831;1267;22573;-66
2022/04/16 23:51:07;;;;;;;12.70;6.80;;;23.40;38.90;;;;;;220755;1268;24218;-67
2022/04/16 23:56:11;;;;;;;15.90;7.90;;;23.30;38.90;;;;;;220885;1266;26136;-65
